sensor_id;sensor_type;location;lat;lon;timestamp;P1;durP1;ratioP1;P2;durP2;ratioP2
10509;SDS011;5303;53.266;10.410;2023-02-28T00:00:00;14.33;;;8.83;;
10509;SDS011;5303;53.266;10.410;2023-02-28T00:02:25;13.73;;;9.27;;
10509;SDS011;5303;53.266;10.410;2023-02-28T00:04:51;13.70;;;9.00;;
10509;SDS011;5303;53.266;10.410;2023-02-28T00:07:25;13.27;;;8.37;;
10509;SDS011;5303;53.266;10.410;2023-02-28T00:09:52;17.67;;;8.97;;
10509;SDS011;5303;53.266;10.410;2023-02-28T00:12:17;14.23;;;8.70;;
10509;SDS011;5303;53.266;10.410;2023-02-28T00:14:42;11.97;;;8.70;;
10509;SDS011;5303;53.266;10.410;2023-02-28T00:17:07;13.53;;;8.90;;
10509;SDS011;5303;53.266;10.410;2023-02-28T00:19:33;13.60;;;8.20;;
10509;SDS011;5303;53.266;10.410;2023-02-28T00:21:58;13.07;;;8.47;;
10509;SDS011;5303;53.266;10.410;2023-02-28T00:24:23;13.17;;;8.30;;
10509;SDS011;5303;53.266;10.410;2023-02-28T00:26:49;13.97;;;7.17;;
10509;SDS011;5303;53.266;10.410;2023-02-28T00:29:14;8.80;;;6.50;;
10509;SDS011;5303;53.266;10.410;2023-02-28T00:31:39;9.20;;;6.80;;
10509;SDS011;5303;53.266;10.410;2023-02-28T00:34:04;9.13;;;6.33;;
10509;SDS011;5303;53.266;10.410;2023-02-28T00:36:30;12.17;;;6.87;;
10509;SDS011;5303;53.266;10.410;2023-02-28T00:38:55;12.93;;;6.40;;
10509;SDS011;5303;53.266;10.410;2023-02-28T00:41:20;12.20;;;6.40;;
10509;SDS011;5303;53.266;10.410;2023-02-28T00:43:45;11.57;;;7.07;;
10509;SDS011;5303;53.266;10.410;2023-02-28T00:46:12;11.67;;;6.80;;
10509;SDS011;5303;53.266;10.410;2023-02-28T00:48:37;11.43;;;6.20;;
10509;SDS011;5303;53.266;10.410;2023-02-28T00:51:03;11.00;;;6.57;;
10509;SDS011;5303;53.266;10.410;2023-02-28T00:53:28;11.77;;;6.70;;
10509;SDS011;5303;53.266;10.410;2023-02-28T00:55:54;11.00;;;7.20;;
10509;SDS011;5303;53.266;10.410;2023-02-28T00:58:19;11.87;;;6.70;;
10509;SDS011;5303;53.266;10.410;2023-02-28T01:00:45;9.80;;;6.13;;
10509;SDS011;5303;53.266;10.410;2023-02-28T01:03:13;8.83;;;5.80;;
10509;SDS011;5303;53.266;10.410;2023-02-28T01:05:39;10.27;;;6.07;;
10509;SDS011;5303;53.266;10.410;2023-02-28T01:08:06;9.43;;;6.43;;
10509;SDS011;5303;53.266;10.410;2023-02-28T01:10:32;11.80;;;6.20;;
10509;SDS011;5303;53.266;10.410;2023-02-28T01:12:57;12.37;;;6.50;;
10509;SDS011;5303;53.266;10.410;2023-02-28T01:15:23;9.67;;;6.07;;
10509;SDS011;5303;53.266;10.410;2023-02-28T01:17:48;9.17;;;5.73;;
10509;SDS011;5303;53.266;10.410;2023-02-28T01:20:13;9.23;;;6.43;;
10509;SDS011;5303;53.266;10.410;2023-02-28T01:22:39;10.17;;;6.20;;
10509;SDS011;5303;53.266;10.410;2023-02-28T01:25:05;9.97;;;6.13;;
10509;SDS011;5303;53.266;10.410;2023-02-28T01:27:30;8.00;;;5.30;;
10509;SDS011;5303;53.266;10.410;2023-02-28T01:29:55;9.60;;;6.37;;
10509;SDS011;5303;53.266;10.410;2023-02-28T01:32:21;10.53;;;6.50;;
10509;SDS011;5303;53.266;10.410;2023-02-28T01:34:46;10.43;;;6.27;;
10509;SDS011;5303;53.266;10.410;2023-02-28T01:37:11;6.70;;;5.30;;
10509;SDS011;5303;53.266;10.410;2023-02-28T01:39:36;8.17;;;5.43;;
10509;SDS011;5303;53.266;10.410;2023-02-28T01:42:02;7.57;;;4.90;;
10509;SDS011;5303;53.266;10.410;2023-02-28T01:47:41;8.17;;;4.80;;
10509;SDS011;5303;53.266;10.410;2023-02-28T01:50:12;7.67;;;5.00;;
10509;SDS011;5303;53.266;10.410;2023-02-28T01:52:42;8.43;;;4.80;;
10509;SDS011;5303;53.266;10.410;2023-02-28T01:55:10;8.53;;;4.93;;
10509;SDS011;5303;53.266;10.410;2023-02-28T01:57:41;7.43;;;4.63;;
10509;SDS011;5303;53.266;10.410;2023-02-28T02:00:12;8.40;;;4.90;;
10509;SDS011;5303;53.266;10.410;2023-02-28T02:02:44;7.83;;;4.97;;
10509;SDS011;5303;53.266;10.410;2023-02-28T02:05:14;7.80;;;5.07;;
10509;SDS011;5303;53.266;10.410;2023-02-28T02:07:42;7.80;;;5.07;;
10509;SDS011;5303;53.266;10.410;2023-02-28T02:10:11;8.43;;;5.53;;
10509;SDS011;5303;53.266;10.410;2023-02-28T02:12:46;8.17;;;5.20;;
10509;SDS011;5303;53.266;10.410;2023-02-28T02:24:23;8.33;;;5.20;;
10509;SDS011;5303;53.266;10.410;2023-02-28T02:37:47;7.20;;;4.33;;
10509;SDS011;5303;53.266;10.410;2023-02-28T02:40:19;8.23;;;5.50;;
10509;SDS011;5303;53.266;10.410;2023-02-28T02:42:51;8.10;;;4.87;;
10509;SDS011;5303;53.266;10.410;2023-02-28T02:45:25;7.57;;;4.73;;
10509;SDS011;5303;53.266;10.410;2023-02-28T02:48:03;7.27;;;5.30;;
10509;SDS011;5303;53.266;10.410;2023-02-28T02:50:34;9.07;;;4.73;;
10509;SDS011;5303;53.266;10.410;2023-02-28T02:53:03;6.47;;;4.97;;
10509;SDS011;5303;53.266;10.410;2023-02-28T02:55:31;9.20;;;4.73;;
10509;SDS011;5303;53.266;10.410;2023-02-28T02:58:02;7.30;;;4.77;;
10509;SDS011;5303;53.266;10.410;2023-02-28T03:00:34;8.77;;;4.77;;
10509;SDS011;5303;53.266;10.410;2023-02-28T03:03:06;8.87;;;5.10;;
10509;SDS011;5303;53.266;10.410;2023-02-28T03:05:35;8.40;;;5.03;;
10509;SDS011;5303;53.266;10.410;2023-02-28T03:08:07;8.00;;;4.90;;
10509;SDS011;5303;53.266;10.410;2023-02-28T03:10:37;7.60;;;5.40;;
10509;SDS011;5303;53.266;10.410;2023-02-28T03:13:17;8.70;;;5.77;;
10509;SDS011;5303;53.266;10.410;2023-02-28T03:16:05;8.83;;;4.83;;
10509;SDS011;5303;53.266;10.410;2023-02-28T03:21:22;8.13;;;5.60;;
10509;SDS011;5303;53.266;10.410;2023-02-28T03:24:24;8.37;;;5.67;;
10509;SDS011;5303;53.266;10.410;2023-02-28T03:27:07;6.03;;;4.70;;
10509;SDS011;5303;53.266;10.410;2023-02-28T03:29:42;8.37;;;4.57;;
10509;SDS011;5303;53.266;10.410;2023-02-28T03:32:21;7.00;;;5.20;;
10509;SDS011;5303;53.266;10.410;2023-02-28T03:34:56;7.27;;;4.60;;
10509;SDS011;5303;53.266;10.410;2023-02-28T03:37:28;7.63;;;5.23;;
10509;SDS011;5303;53.266;10.410;2023-02-28T03:39:56;5.50;;;4.60;;
10509;SDS011;5303;53.266;10.410;2023-02-28T03:42:27;6.57;;;4.70;;
10509;SDS011;5303;53.266;10.410;2023-02-28T03:47:28;7.23;;;4.80;;
10509;SDS011;5303;53.266;10.410;2023-02-28T03:50:00;9.03;;;5.00;;
10509;SDS011;5303;53.266;10.410;2023-02-28T03:52:31;8.20;;;5.10;;
10509;SDS011;5303;53.266;10.410;2023-02-28T03:55:02;6.53;;;5.23;;
10509;SDS011;5303;53.266;10.410;2023-02-28T04:00:47;7.70;;;5.20;;
10509;SDS011;5303;53.266;10.410;2023-02-28T04:02:56;6.63;;;4.90;;
10509;SDS011;5303;53.266;10.410;2023-02-28T04:05:21;7.20;;;4.70;;
10509;SDS011;5303;53.266;10.410;2023-02-28T04:07:47;7.00;;;4.43;;
10509;SDS011;5303;53.266;10.410;2023-02-28T04:10:13;8.23;;;5.00;;
10509;SDS011;5303;53.266;10.410;2023-02-28T04:12:41;7.27;;;4.90;;
10509;SDS011;5303;53.266;10.410;2023-02-28T04:15:06;6.97;;;4.63;;
10509;SDS011;5303;53.266;10.410;2023-02-28T04:17:32;8.33;;;4.93;;
10509;SDS011;5303;53.266;10.410;2023-02-28T04:19:57;9.57;;;4.53;;
10509;SDS011;5303;53.266;10.410;2023-02-28T04:22:22;6.70;;;4.97;;
10509;SDS011;5303;53.266;10.410;2023-02-28T04:24:51;6.77;;;5.43;;
10509;SDS011;5303;53.266;10.410;2023-02-28T04:27:18;6.17;;;4.30;;
10509;SDS011;5303;53.266;10.410;2023-02-28T04:29:44;8.37;;;5.13;;
10509;SDS011;5303;53.266;10.410;2023-02-28T04:32:09;7.97;;;4.97;;
10509;SDS011;5303;53.266;10.410;2023-02-28T04:34:35;11.23;;;5.37;;
10509;SDS011;5303;53.266;10.410;2023-02-28T04:37:00;8.47;;;5.40;;
10509;SDS011;5303;53.266;10.410;2023-02-28T04:39:26;9.10;;;4.60;;
10509;SDS011;5303;53.266;10.410;2023-02-28T04:41:51;8.83;;;5.13;;
10509;SDS011;5303;53.266;10.410;2023-02-28T04:44:17;7.67;;;4.97;;
10509;SDS011;5303;53.266;10.410;2023-02-28T04:46:42;8.27;;;4.50;;
10509;SDS011;5303;53.266;10.410;2023-02-28T04:49:10;7.77;;;5.33;;
10509;SDS011;5303;53.266;10.410;2023-02-28T04:51:37;8.00;;;5.87;;
10509;SDS011;5303;53.266;10.410;2023-02-28T04:54:02;6.53;;;5.10;;
10509;SDS011;5303;53.266;10.410;2023-02-28T04:56:27;7.73;;;5.00;;
10509;SDS011;5303;53.266;10.410;2023-02-28T04:58:53;8.03;;;5.17;;
10509;SDS011;5303;53.266;10.410;2023-02-28T05:03:52;8.23;;;4.80;;
10509;SDS011;5303;53.266;10.410;2023-02-28T05:06:19;7.87;;;5.47;;
10509;SDS011;5303;53.266;10.410;2023-02-28T05:08:45;7.07;;;4.53;;
10509;SDS011;5303;53.266;10.410;2023-02-28T05:11:21;8.33;;;5.53;;
10509;SDS011;5303;53.266;10.410;2023-02-28T05:13:51;9.77;;;5.40;;
10509;SDS011;5303;53.266;10.410;2023-02-28T05:16:17;12.97;;;5.90;;
10509;SDS011;5303;53.266;10.410;2023-02-28T05:18:43;8.70;;;5.93;;
10509;SDS011;5303;53.266;10.410;2023-02-28T05:21:28;11.40;;;6.10;;
10509;SDS011;5303;53.266;10.410;2023-02-28T05:23:56;9.93;;;5.40;;
10509;SDS011;5303;53.266;10.410;2023-02-28T05:26:23;8.47;;;5.80;;
10509;SDS011;5303;53.266;10.410;2023-02-28T05:28:49;7.73;;;5.37;;
10509;SDS011;5303;53.266;10.410;2023-02-28T05:31:14;7.83;;;5.33;;
10509;SDS011;5303;53.266;10.410;2023-02-28T05:33:40;7.17;;;5.13;;
10509;SDS011;5303;53.266;10.410;2023-02-28T05:36:05;7.17;;;4.97;;
10509;SDS011;5303;53.266;10.410;2023-02-28T05:38:31;8.77;;;5.27;;
10509;SDS011;5303;53.266;10.410;2023-02-28T05:40:57;6.50;;;5.27;;
10509;SDS011;5303;53.266;10.410;2023-02-28T05:43:22;7.77;;;4.50;;
10509;SDS011;5303;53.266;10.410;2023-02-28T05:45:48;8.67;;;4.83;;
10509;SDS011;5303;53.266;10.410;2023-02-28T05:48:13;8.03;;;4.63;;
10509;SDS011;5303;53.266;10.410;2023-02-28T05:50:39;8.37;;;5.17;;
10509;SDS011;5303;53.266;10.410;2023-02-28T05:53:04;8.73;;;5.27;;
10509;SDS011;5303;53.266;10.410;2023-02-28T05:55:30;8.57;;;5.57;;
10509;SDS011;5303;53.266;10.410;2023-02-28T05:57:55;9.23;;;5.43;;
10509;SDS011;5303;53.266;10.410;2023-02-28T06:00:21;7.60;;;5.00;;
10509;SDS011;5303;53.266;10.410;2023-02-28T06:02:46;7.43;;;5.03;;
10509;SDS011;5303;53.266;10.410;2023-02-28T06:05:13;9.27;;;5.00;;
10509;SDS011;5303;53.266;10.410;2023-02-28T06:07:40;8.10;;;5.33;;
10509;SDS011;5303;53.266;10.410;2023-02-28T06:10:05;9.40;;;5.20;;
10509;SDS011;5303;53.266;10.410;2023-02-28T06:12:31;7.70;;;4.93;;
10509;SDS011;5303;53.266;10.410;2023-02-28T06:14:56;10.23;;;6.07;;
10509;SDS011;5303;53.266;10.410;2023-02-28T06:17:21;9.77;;;6.40;;
10509;SDS011;5303;53.266;10.410;2023-02-28T06:19:47;8.10;;;5.47;;
10509;SDS011;5303;53.266;10.410;2023-02-28T06:22:12;8.47;;;5.63;;
10509;SDS011;5303;53.266;10.410;2023-02-28T06:24:38;6.63;;;4.93;;
10509;SDS011;5303;53.266;10.410;2023-02-28T06:27:03;9.40;;;5.50;;
10509;SDS011;5303;53.266;10.410;2023-02-28T06:29:30;9.63;;;6.00;;
10509;SDS011;5303;53.266;10.410;2023-02-28T06:32:01;10.80;;;5.80;;
10509;SDS011;5303;53.266;10.410;2023-02-28T06:34:26;11.80;;;5.80;;
10509;SDS011;5303;53.266;10.410;2023-02-28T06:36:52;9.80;;;5.60;;
10509;SDS011;5303;53.266;10.410;2023-02-28T06:39:18;8.77;;;5.57;;
10509;SDS011;5303;53.266;10.410;2023-02-28T06:41:43;9.93;;;5.70;;
10509;SDS011;5303;53.266;10.410;2023-02-28T06:44:14;9.00;;;6.23;;
10509;SDS011;5303;53.266;10.410;2023-02-28T06:46:41;8.57;;;6.53;;
10509;SDS011;5303;53.266;10.410;2023-02-28T06:49:08;9.43;;;5.30;;
10509;SDS011;5303;53.266;10.410;2023-02-28T06:51:35;10.17;;;5.20;;
10509;SDS011;5303;53.266;10.410;2023-02-28T06:54:02;8.87;;;5.77;;
10509;SDS011;5303;53.266;10.410;2023-02-28T06:56:27;9.70;;;5.37;;
10509;SDS011;5303;53.266;10.410;2023-02-28T06:58:52;8.93;;;5.43;;
10509;SDS011;5303;53.266;10.410;2023-02-28T07:01:18;6.77;;;5.10;;
10509;SDS011;5303;53.266;10.410;2023-02-28T07:03:44;8.23;;;5.17;;
10509;SDS011;5303;53.266;10.410;2023-02-28T07:06:09;11.27;;;5.13;;
10509;SDS011;5303;53.266;10.410;2023-02-28T07:08:35;7.50;;;5.13;;
10509;SDS011;5303;53.266;10.410;2023-02-28T07:11:01;9.87;;;5.57;;
10509;SDS011;5303;53.266;10.410;2023-02-28T07:13:27;8.83;;;5.57;;
10509;SDS011;5303;53.266;10.410;2023-02-28T07:15:53;9.27;;;5.53;;
10509;SDS011;5303;53.266;10.410;2023-02-28T07:18:19;9.00;;;5.83;;
10509;SDS011;5303;53.266;10.410;2023-02-28T07:20:44;8.50;;;5.87;;
10509;SDS011;5303;53.266;10.410;2023-02-28T07:23:09;10.30;;;6.37;;
10509;SDS011;5303;53.266;10.410;2023-02-28T07:25:35;8.77;;;5.63;;
10509;SDS011;5303;53.266;10.410;2023-02-28T07:28:00;10.20;;;5.57;;
10509;SDS011;5303;53.266;10.410;2023-02-28T07:30:25;10.63;;;6.03;;
10509;SDS011;5303;53.266;10.410;2023-02-28T07:32:51;10.03;;;6.17;;
10509;SDS011;5303;53.266;10.410;2023-02-28T07:35:16;8.70;;;6.07;;
10509;SDS011;5303;53.266;10.410;2023-02-28T07:37:42;8.13;;;5.73;;
10509;SDS011;5303;53.266;10.410;2023-02-28T07:40:09;10.93;;;5.70;;
10509;SDS011;5303;53.266;10.410;2023-02-28T07:42:39;7.90;;;5.40;;
10509;SDS011;5303;53.266;10.410;2023-02-28T07:45:05;10.70;;;5.40;;
10509;SDS011;5303;53.266;10.410;2023-02-28T07:47:32;11.87;;;5.27;;
10509;SDS011;5303;53.266;10.410;2023-02-28T07:49:57;8.40;;;5.40;;
10509;SDS011;5303;53.266;10.410;2023-02-28T07:52:23;7.70;;;5.40;;
10509;SDS011;5303;53.266;10.410;2023-02-28T07:54:49;9.60;;;5.17;;
10509;SDS011;5303;53.266;10.410;2023-02-28T07:57:15;8.63;;;5.63;;
10509;SDS011;5303;53.266;10.410;2023-02-28T07:59:40;12.50;;;5.50;;
10509;SDS011;5303;53.266;10.410;2023-02-28T08:02:06;7.73;;;5.83;;
10509;SDS011;5303;53.266;10.410;2023-02-28T08:04:31;9.93;;;5.90;;
10509;SDS011;5303;53.266;10.410;2023-02-28T08:06:57;10.75;;;6.80;;
10509;SDS011;5303;53.266;10.410;2023-02-28T08:09:23;10.63;;;6.20;;
10509;SDS011;5303;53.266;10.410;2023-02-28T08:11:49;8.63;;;5.73;;
10509;SDS011;5303;53.266;10.410;2023-02-28T08:14:14;6.20;;;4.97;;
10509;SDS011;5303;53.266;10.410;2023-02-28T08:16:39;8.93;;;6.37;;
10509;SDS011;5303;53.266;10.410;2023-02-28T08:19:05;8.50;;;5.67;;
10509;SDS011;5303;53.266;10.410;2023-02-28T08:21:31;9.10;;;5.93;;
10509;SDS011;5303;53.266;10.410;2023-02-28T08:23:57;6.63;;;5.50;;
10509;SDS011;5303;53.266;10.410;2023-02-28T08:26:23;8.33;;;5.60;;
10509;SDS011;5303;53.266;10.410;2023-02-28T08:28:48;7.13;;;5.03;;
10509;SDS011;5303;53.266;10.410;2023-02-28T08:31:14;7.60;;;5.17;;
10509;SDS011;5303;53.266;10.410;2023-02-28T08:33:41;6.67;;;4.90;;
10509;SDS011;5303;53.266;10.410;2023-02-28T08:36:07;10.07;;;5.33;;
10509;SDS011;5303;53.266;10.410;2023-02-28T08:38:33;8.90;;;5.50;;
10509;SDS011;5303;53.266;10.410;2023-02-28T08:41:00;7.63;;;4.90;;
10509;SDS011;5303;53.266;10.410;2023-02-28T08:43:28;5.63;;;4.60;;
10509;SDS011;5303;53.266;10.410;2023-02-28T08:45:54;5.83;;;4.73;;
10509;SDS011;5303;53.266;10.410;2023-02-28T08:48:24;7.03;;;4.67;;
10509;SDS011;5303;53.266;10.410;2023-02-28T08:50:57;5.40;;;4.10;;
10509;SDS011;5303;53.266;10.410;2023-02-28T08:53:27;5.13;;;3.87;;
10509;SDS011;5303;53.266;10.410;2023-02-28T08:55:59;8.13;;;4.47;;
10509;SDS011;5303;53.266;10.410;2023-02-28T08:58:29;6.60;;;4.50;;
10509;SDS011;5303;53.266;10.410;2023-02-28T09:00:55;7.60;;;4.07;;
10509;SDS011;5303;53.266;10.410;2023-02-28T09:03:20;7.20;;;4.20;;
10509;SDS011;5303;53.266;10.410;2023-02-28T09:05:59;6.70;;;4.17;;
10509;SDS011;5303;53.266;10.410;2023-02-28T09:08:26;7.07;;;4.07;;
10509;SDS011;5303;53.266;10.410;2023-02-28T09:10:54;5.57;;;4.00;;
10509;SDS011;5303;53.266;10.410;2023-02-28T09:13:22;5.73;;;3.87;;
10509;SDS011;5303;53.266;10.410;2023-02-28T09:15:47;6.17;;;4.03;;
10509;SDS011;5303;53.266;10.410;2023-02-28T09:18:12;7.80;;;3.90;;
10509;SDS011;5303;53.266;10.410;2023-02-28T09:20:38;7.07;;;3.60;;
10509;SDS011;5303;53.266;10.410;2023-02-28T09:23:05;5.67;;;3.50;;
10509;SDS011;5303;53.266;10.410;2023-02-28T09:25:31;5.10;;;3.80;;
10509;SDS011;5303;53.266;10.410;2023-02-28T09:27:56;5.07;;;3.60;;
10509;SDS011;5303;53.266;10.410;2023-02-28T09:30:27;5.80;;;3.20;;
10509;SDS011;5303;53.266;10.410;2023-02-28T09:32:53;4.93;;;3.00;;
10509;SDS011;5303;53.266;10.410;2023-02-28T09:35:22;4.60;;;2.77;;
10509;SDS011;5303;53.266;10.410;2023-02-28T09:37:49;4.73;;;2.43;;
10509;SDS011;5303;53.266;10.410;2023-02-28T09:40:19;3.77;;;2.40;;
10509;SDS011;5303;53.266;10.410;2023-02-28T09:42:47;3.90;;;2.80;;
10509;SDS011;5303;53.266;10.410;2023-02-28T09:45:23;5.60;;;3.30;;
10509;SDS011;5303;53.266;10.410;2023-02-28T09:47:54;4.33;;;2.60;;
10509;SDS011;5303;53.266;10.410;2023-02-28T09:52:52;6.53;;;2.87;;
10509;SDS011;5303;53.266;10.410;2023-02-28T09:58:19;6.20;;;2.55;;
10509;SDS011;5303;53.266;10.410;2023-02-28T10:00:53;3.47;;;1.57;;
10509;SDS011;5303;53.266;10.410;2023-02-28T10:03:29;1.73;;;1.40;;
10509;SDS011;5303;53.266;10.410;2023-02-28T10:06:02;1.80;;;1.20;;
10509;SDS011;5303;53.266;10.410;2023-02-28T10:08:36;2.83;;;1.60;;
10509;SDS011;5303;53.266;10.410;2023-02-28T10:11:11;2.93;;;1.43;;
10509;SDS011;5303;53.266;10.410;2023-02-28T10:13:53;1.70;;;1.20;;
10509;SDS011;5303;53.266;10.410;2023-02-28T10:16:36;1.63;;;1.17;;
10509;SDS011;5303;53.266;10.410;2023-02-28T10:22:00;2.33;;;1.70;;
10509;SDS011;5303;53.266;10.410;2023-02-28T10:24:32;2.10;;;1.83;;
10509;SDS011;5303;53.266;10.410;2023-02-28T10:27:01;3.30;;;2.20;;
10509;SDS011;5303;53.266;10.410;2023-02-28T10:29:39;3.60;;;2.10;;
10509;SDS011;5303;53.266;10.410;2023-02-28T10:32:08;3.53;;;1.90;;
10509;SDS011;5303;53.266;10.410;2023-02-28T10:34:36;2.73;;;1.90;;
10509;SDS011;5303;53.266;10.410;2023-02-28T10:37:01;4.77;;;2.20;;
10509;SDS011;5303;53.266;10.410;2023-02-28T10:39:45;3.57;;;1.70;;
10509;SDS011;5303;53.266;10.410;2023-02-28T10:42:44;4.07;;;2.60;;
10509;SDS011;5303;53.266;10.410;2023-02-28T10:45:11;4.10;;;2.00;;
10509;SDS011;5303;53.266;10.410;2023-02-28T10:50:28;2.40;;;2.03;;
10509;SDS011;5303;53.266;10.410;2023-02-28T10:52:54;3.27;;;1.77;;
10509;SDS011;5303;53.266;10.410;2023-02-28T10:55:24;3.20;;;1.97;;
10509;SDS011;5303;53.266;10.410;2023-02-28T10:57:50;3.30;;;2.00;;
10509;SDS011;5303;53.266;10.410;2023-02-28T11:02:46;5.27;;;2.30;;
10509;SDS011;5303;53.266;10.410;2023-02-28T11:10:35;4.17;;;2.10;;
10509;SDS011;5303;53.266;10.410;2023-02-28T11:13:01;4.53;;;1.97;;
10509;SDS011;5303;53.266;10.410;2023-02-28T11:15:28;3.60;;;1.80;;
10509;SDS011;5303;53.266;10.410;2023-02-28T11:17:59;4.07;;;2.10;;
10509;SDS011;5303;53.266;10.410;2023-02-28T11:20:30;2.83;;;2.00;;
10509;SDS011;5303;53.266;10.410;2023-02-28T11:22:58;2.90;;;1.80;;
10509;SDS011;5303;53.266;10.410;2023-02-28T11:25:27;4.53;;;2.20;;
10509;SDS011;5303;53.266;10.410;2023-02-28T11:27:56;3.90;;;2.38;;
10509;SDS011;5303;53.266;10.410;2023-02-28T11:30:27;2.67;;;1.90;;
10509;SDS011;5303;53.266;10.410;2023-02-28T11:32:54;3.03;;;2.17;;
10509;SDS011;5303;53.266;10.410;2023-02-28T11:35:24;3.70;;;2.10;;
10509;SDS011;5303;53.266;10.410;2023-02-28T11:37:53;2.73;;;1.80;;
10509;SDS011;5303;53.266;10.410;2023-02-28T11:40:20;2.97;;;2.07;;
10509;SDS011;5303;53.266;10.410;2023-02-28T11:45:55;2.27;;;1.60;;
10509;SDS011;5303;53.266;10.410;2023-02-28T11:51:33;1.73;;;1.30;;
10509;SDS011;5303;53.266;10.410;2023-02-28T11:54:15;2.53;;;1.60;;
10509;SDS011;5303;53.266;10.410;2023-02-28T11:56:48;2.35;;;1.52;;
10509;SDS011;5303;53.266;10.410;2023-02-28T11:59:32;2.17;;;1.40;;
10509;SDS011;5303;53.266;10.410;2023-02-28T12:02:05;2.17;;;1.43;;
10509;SDS011;5303;53.266;10.410;2023-02-28T12:07:39;2.67;;;1.50;;
10509;SDS011;5303;53.266;10.410;2023-02-28T12:10:22;2.73;;;1.83;;
10509;SDS011;5303;53.266;10.410;2023-02-28T12:15:38;3.03;;;1.80;;
10509;SDS011;5303;53.266;10.410;2023-02-28T12:20:49;2.13;;;1.40;;
10509;SDS011;5303;53.266;10.410;2023-02-28T12:28:49;2.70;;;1.50;;
10509;SDS011;5303;53.266;10.410;2023-02-28T12:31:19;2.70;;;1.63;;
10509;SDS011;5303;53.266;10.410;2023-02-28T12:33:52;2.50;;;1.50;;
10509;SDS011;5303;53.266;10.410;2023-02-28T12:36:21;2.80;;;1.50;;
10509;SDS011;5303;53.266;10.410;2023-02-28T12:38:50;2.73;;;2.10;;
10509;SDS011;5303;53.266;10.410;2023-02-28T12:44:26;2.37;;;1.73;;
10509;SDS011;5303;53.266;10.410;2023-02-28T12:46:54;3.47;;;1.80;;
10509;SDS011;5303;53.266;10.410;2023-02-28T12:50:24;4.23;;;1.70;;
10509;SDS011;5303;53.266;10.410;2023-02-28T13:01:18;2.00;;;1.47;;
10509;SDS011;5303;53.266;10.410;2023-02-28T13:06:52;2.00;;;1.40;;
10509;SDS011;5303;53.266;10.410;2023-02-28T13:09:31;2.60;;;1.77;;
10509;SDS011;5303;53.266;10.410;2023-02-28T13:11:56;2.40;;;1.90;;
10509;SDS011;5303;53.266;10.410;2023-02-28T13:14:27;3.23;;;1.93;;
10509;SDS011;5303;53.266;10.410;2023-02-28T13:17:01;2.30;;;1.70;;
10509;SDS011;5303;53.266;10.410;2023-02-28T13:19:38;2.33;;;1.60;;
10509;SDS011;5303;53.266;10.410;2023-02-28T13:22:15;2.50;;;1.90;;
10509;SDS011;5303;53.266;10.410;2023-02-28T13:24:50;3.37;;;1.80;;
10509;SDS011;5303;53.266;10.410;2023-02-28T13:27:22;2.27;;;1.97;;
10509;SDS011;5303;53.266;10.410;2023-02-28T13:38:47;2.60;;;1.80;;
10509;SDS011;5303;53.266;10.410;2023-02-28T13:41:47;4.87;;;1.80;;
10509;SDS011;5303;53.266;10.410;2023-02-28T13:49:20;3.43;;;1.70;;
10509;SDS011;5303;53.266;10.410;2023-02-28T13:58:08;2.40;;;1.80;;
10509;SDS011;5303;53.266;10.410;2023-02-28T14:03:48;2.77;;;1.70;;
10509;SDS011;5303;53.266;10.410;2023-02-28T14:06:26;1.87;;;1.40;;
10509;SDS011;5303;53.266;10.410;2023-02-28T14:11:39;2.13;;;1.80;;
10509;SDS011;5303;53.266;10.410;2023-02-28T14:14:07;1.83;;;1.53;;
10509;SDS011;5303;53.266;10.410;2023-02-28T14:16:39;2.00;;;1.70;;
10509;SDS011;5303;53.266;10.410;2023-02-28T14:19:11;2.23;;;1.43;;
10509;SDS011;5303;53.266;10.410;2023-02-28T14:21:45;1.60;;;1.50;;
10509;SDS011;5303;53.266;10.410;2023-02-28T14:24:23;3.23;;;1.80;;
10509;SDS011;5303;53.266;10.410;2023-02-28T14:27:08;2.80;;;1.47;;
10509;SDS011;5303;53.266;10.410;2023-02-28T14:29:59;2.63;;;1.50;;
10509;SDS011;5303;53.266;10.410;2023-02-28T14:32:41;2.07;;;1.60;;
10509;SDS011;5303;53.266;10.410;2023-02-28T14:35:26;2.17;;;1.40;;
10509;SDS011;5303;53.266;10.410;2023-02-28T14:38:13;1.93;;;1.17;;
10509;SDS011;5303;53.266;10.410;2023-02-28T14:40:41;1.97;;;1.20;;
10509;SDS011;5303;53.266;10.410;2023-02-28T14:43:18;2.37;;;1.50;;
10509;SDS011;5303;53.266;10.410;2023-02-28T14:45:49;2.70;;;1.30;;
10509;SDS011;5303;53.266;10.410;2023-02-28T14:48:16;2.97;;;1.30;;
10509;SDS011;5303;53.266;10.410;2023-02-28T14:50:48;1.50;;;1.27;;
10509;SDS011;5303;53.266;10.410;2023-02-28T14:53:18;3.50;;;1.83;;
10509;SDS011;5303;53.266;10.410;2023-02-28T14:55:46;2.77;;;1.77;;
10509;SDS011;5303;53.266;10.410;2023-02-28T14:58:28;1.47;;;1.30;;
10509;SDS011;5303;53.266;10.410;2023-02-28T15:00:57;3.20;;;1.60;;
10509;SDS011;5303;53.266;10.410;2023-02-28T15:03:31;3.57;;;1.83;;
10509;SDS011;5303;53.266;10.410;2023-02-28T15:05:57;1.63;;;1.30;;
10509;SDS011;5303;53.266;10.410;2023-02-28T15:08:24;1.50;;;1.13;;
10509;SDS011;5303;53.266;10.410;2023-02-28T15:13:19;2.83;;;1.40;;
10509;SDS011;5303;53.266;10.410;2023-02-28T15:15:47;1.97;;;1.33;;
10509;SDS011;5303;53.266;10.410;2023-02-28T15:18:28;2.00;;;1.20;;
10509;SDS011;5303;53.266;10.410;2023-02-28T15:20:58;1.30;;;1.20;;
10509;SDS011;5303;53.266;10.410;2023-02-28T15:23:29;1.50;;;1.20;;
10509;SDS011;5303;53.266;10.410;2023-02-28T15:25:55;1.43;;;1.07;;
10509;SDS011;5303;53.266;10.410;2023-02-28T15:28:21;1.47;;;1.37;;
10509;SDS011;5303;53.266;10.410;2023-02-28T15:30:53;1.53;;;1.17;;
10509;SDS011;5303;53.266;10.410;2023-02-28T15:33:22;2.30;;;1.30;;
10509;SDS011;5303;53.266;10.410;2023-02-28T15:35:50;1.33;;;1.20;;
10509;SDS011;5303;53.266;10.410;2023-02-28T15:38:23;2.50;;;1.70;;
10509;SDS011;5303;53.266;10.410;2023-02-28T15:40:55;3.53;;;1.63;;
10509;SDS011;5303;53.266;10.410;2023-02-28T15:46:01;2.60;;;1.53;;
10509;SDS011;5303;53.266;10.410;2023-02-28T15:51:06;1.57;;;1.20;;
10509;SDS011;5303;53.266;10.410;2023-02-28T15:53:34;2.57;;;1.47;;
10509;SDS011;5303;53.266;10.410;2023-02-28T15:56:04;1.50;;;1.27;;
10509;SDS011;5303;53.266;10.410;2023-02-28T15:58:32;2.17;;;1.60;;
10509;SDS011;5303;53.266;10.410;2023-02-28T16:01:00;1.50;;;1.17;;
10509;SDS011;5303;53.266;10.410;2023-02-28T16:03:37;2.33;;;1.50;;
10509;SDS011;5303;53.266;10.410;2023-02-28T16:09:00;3.97;;;2.00;;
10509;SDS011;5303;53.266;10.410;2023-02-28T16:11:26;2.63;;;1.70;;
10509;SDS011;5303;53.266;10.410;2023-02-28T16:13:51;3.37;;;1.87;;
10509;SDS011;5303;53.266;10.410;2023-02-28T16:16:20;2.10;;;1.57;;
10509;SDS011;5303;53.266;10.410;2023-02-28T16:18:47;4.30;;;1.77;;
10509;SDS011;5303;53.266;10.410;2023-02-28T16:21:13;2.27;;;1.70;;
10509;SDS011;5303;53.266;10.410;2023-02-28T16:23:38;2.67;;;1.80;;
10509;SDS011;5303;53.266;10.410;2023-02-28T16:26:04;1.73;;;1.63;;
10509;SDS011;5303;53.266;10.410;2023-02-28T16:28:31;2.50;;;1.63;;
10509;SDS011;5303;53.266;10.410;2023-02-28T16:30:59;2.43;;;1.70;;
10509;SDS011;5303;53.266;10.410;2023-02-28T16:33:27;2.43;;;1.60;;
10509;SDS011;5303;53.266;10.410;2023-02-28T16:35:53;1.77;;;1.47;;
10509;SDS011;5303;53.266;10.410;2023-02-28T16:38:18;1.97;;;1.50;;
10509;SDS011;5303;53.266;10.410;2023-02-28T16:40:44;2.17;;;1.57;;
10509;SDS011;5303;53.266;10.410;2023-02-28T16:43:13;2.13;;;1.80;;
10509;SDS011;5303;53.266;10.410;2023-02-28T16:45:42;2.73;;;1.53;;
10509;SDS011;5303;53.266;10.410;2023-02-28T16:48:08;4.40;;;2.00;;
10509;SDS011;5303;53.266;10.410;2023-02-28T16:50:38;2.47;;;1.80;;
10509;SDS011;5303;53.266;10.410;2023-02-28T16:53:03;3.00;;;1.43;;
10509;SDS011;5303;53.266;10.410;2023-02-28T16:55:30;2.23;;;1.67;;
10509;SDS011;5303;53.266;10.410;2023-02-28T16:57:59;2.33;;;1.90;;
10509;SDS011;5303;53.266;10.410;2023-02-28T17:00:26;3.83;;;2.20;;